createdAt,value
2022-12-19T00:01:40.115Z,25.63
2022-12-19T00:04:16.200Z,25.64
2022-12-19T00:06:46.166Z,25.66
2022-12-19T00:09:18.810Z,25.67
2022-12-19T00:11:50.207Z,25.68
2022-12-19T00:14:20.837Z,25.68
2022-12-19T00:16:51.117Z,25.70
2022-12-19T00:19:22.854Z,25.71
2022-12-19T00:21:56.072Z,25.73
2022-12-19T00:24:26.682Z,25.74
2022-12-19T00:26:57.341Z,25.75
2022-12-19T00:29:29.267Z,25.75
2022-12-19T00:32:00.323Z,25.77
2022-12-19T00:34:30.722Z,25.77
2022-12-19T00:37:00.757Z,25.78
2022-12-19T00:39:31.009Z,25.79
2022-12-19T00:42:01.473Z,25.79
2022-12-19T00:44:31.606Z,25.80
2022-12-19T00:47:02.027Z,25.80
2022-12-19T00:49:32.614Z,25.81
2022-12-19T00:52:03.753Z,25.80
2022-12-19T00:54:34.760Z,25.79
2022-12-19T00:57:05.797Z,25.79
2022-12-19T00:59:37.080Z,25.79
2022-12-19T01:02:08.063Z,25.79
2022-12-19T01:04:41.568Z,25.79
2022-12-19T01:07:10.129Z,25.77
2022-12-19T01:09:40.176Z,25.78
2022-12-19T01:15:17.214Z,25.76
2022-12-19T01:17:47.520Z,25.78
2022-12-19T01:20:25.648Z,25.78
2022-12-19T01:22:51.378Z,25.81
2022-12-19T01:25:22.924Z,25.85
2022-12-19T01:27:53.217Z,25.81
2022-12-19T01:30:26.817Z,25.80
2022-12-19T01:32:59.343Z,25.79
2022-12-19T01:35:29.820Z,25.79
2022-12-19T01:38:08.196Z,25.77
2022-12-19T01:40:32.466Z,25.80
2022-12-19T01:43:04.354Z,25.78
2022-12-19T01:45:37.512Z,25.80
2022-12-19T01:48:18.362Z,25.79
2022-12-19T01:51:02.035Z,25.82
2022-12-19T01:53:28.383Z,25.79
2022-12-19T01:55:58.518Z,25.75
2022-12-19T01:58:28.756Z,25.73
2022-12-19T02:00:58.785Z,25.74
2022-12-19T02:03:30.192Z,25.73
2022-12-19T02:06:00.649Z,25.71
2022-12-19T02:08:30.736Z,25.69
2022-12-19T02:11:04.179Z,25.68
2022-12-19T02:13:34.305Z,25.67
2022-12-19T02:16:16.990Z,25.66
2022-12-19T02:19:09.517Z,25.63
2022-12-19T02:21:55.817Z,25.57
2022-12-19T02:25:01.032Z,25.57
2022-12-19T02:27:50.128Z,25.58
2022-12-19T02:30:39.941Z,25.57
2022-12-19T02:33:21.534Z,25.28
2022-12-19T02:35:56.712Z,25.47
2022-12-19T02:38:29.761Z,25.83
2022-12-19T02:41:11.947Z,26.43
2022-12-19T02:43:46.572Z,28.13
2022-12-19T02:46:18.687Z,28.09
2022-12-19T02:48:49.305Z,27.96
2022-12-19T02:51:19.779Z,27.71
2022-12-19T02:53:49.782Z,27.61
2022-12-19T02:56:25.815Z,27.56
2022-12-19T02:59:05.256Z,27.44
2022-12-19T03:01:47.480Z,27.47
2022-12-19T03:04:37.230Z,27.49
2022-12-19T03:07:22.283Z,27.34
2022-12-19T03:10:01.852Z,27.25
2022-12-19T03:12:35.372Z,27.16
2022-12-19T03:15:05.537Z,27.07
2022-12-19T03:17:41.743Z,26.93
2022-12-19T03:20:16.873Z,26.86
2022-12-19T03:22:46.844Z,26.80
2022-12-19T03:25:18.345Z,26.69
2022-12-19T03:27:49.394Z,26.62
2022-12-19T03:30:19.517Z,26.61
2022-12-19T03:32:49.847Z,26.56
2022-12-19T03:35:22.683Z,26.54
2022-12-19T03:37:53.972Z,26.49
2022-12-19T03:40:25.614Z,26.46
2022-12-19T03:43:12.110Z,26.45
2022-12-19T03:45:51.815Z,26.40
2022-12-19T03:48:25.488Z,26.39
2022-12-19T03:51:03.131Z,26.35
2022-12-19T03:54:00.238Z,26.34
2022-12-19T03:56:48.519Z,26.25
2022-12-19T03:59:21.246Z,26.29
2022-12-19T04:01:52.973Z,26.32
2022-12-19T04:04:25.284Z,26.32
2022-12-19T04:06:55.554Z,26.37
2022-12-19T04:09:26.428Z,26.45
2022-12-19T04:12:00.405Z,26.45
2022-12-19T04:14:35.527Z,26.42
2022-12-19T04:17:17.514Z,26.43
2022-12-19T04:19:51.047Z,26.38
2022-12-19T04:22:27.465Z,26.37
2022-12-19T04:24:57.299Z,26.36
2022-12-19T04:27:29.559Z,26.35
2022-12-19T04:30:00.159Z,26.30
2022-12-19T04:32:31.452Z,26.33
2022-12-19T04:35:02.569Z,26.28
2022-12-19T04:37:33.065Z,26.32
2022-12-19T04:40:03.287Z,26.26
2022-12-19T04:42:33.549Z,26.29
2022-12-19T04:45:03.495Z,26.26
2022-12-19T04:47:34.352Z,26.24
2022-12-19T04:50:04.554Z,26.25
2022-12-19T04:52:35.163Z,26.24
2022-12-19T04:55:07.106Z,26.21
2022-12-19T04:57:37.446Z,26.21
2022-12-19T05:00:09.571Z,26.20
2022-12-19T05:02:41.474Z,26.18
2022-12-19T05:05:11.647Z,26.15
2022-12-19T05:07:42.008Z,26.12
2022-12-19T05:10:12.815Z,26.15
2022-12-19T05:12:43.130Z,26.10
2022-12-19T05:15:13.506Z,26.10
2022-12-19T05:17:44.066Z,26.08
2022-12-19T05:20:14.568Z,26.09
2022-12-19T05:22:44.423Z,26.09
2022-12-19T05:25:15.046Z,26.08
2022-12-19T05:30:12.132Z,26.06
2022-12-19T05:32:43.888Z,26.04
2022-12-19T05:35:17.175Z,26.05
2022-12-19T05:37:47.276Z,26.02
2022-12-19T05:40:17.422Z,26.01
2022-12-19T05:42:47.527Z,26.01
2022-12-19T05:45:19.204Z,25.98
2022-12-19T05:53:21.849Z,25.95
2022-12-19T05:55:49.914Z,25.95
2022-12-19T05:58:20.001Z,25.91
2022-12-19T06:00:50.803Z,25.91
2022-12-19T06:03:21.776Z,25.89
2022-12-19T06:05:52.534Z,25.87
2022-12-19T06:08:23.170Z,25.84
2022-12-19T06:10:55.094Z,25.83
2022-12-19T06:13:27.330Z,25.86
2022-12-19T06:16:15.328Z,25.82
2022-12-19T06:18:46.125Z,25.80
2022-12-19T06:21:17.953Z,25.80
2022-12-19T06:23:48.842Z,25.80
2022-12-19T06:26:20.423Z,25.80
2022-12-19T06:28:53.601Z,25.79
2022-12-19T06:31:25.031Z,25.81
2022-12-19T06:33:57.222Z,25.81
2022-12-19T06:36:29.324Z,25.79
2022-12-19T06:38:59.739Z,25.77
2022-12-19T06:41:47.028Z,25.75
2022-12-19T06:44:18.167Z,25.75
2022-12-19T06:46:48.541Z,25.76
2022-12-19T06:49:18.643Z,25.76
2022-12-19T06:51:48.760Z,25.74
2022-12-19T06:54:19.608Z,25.74
2022-12-19T06:56:49.832Z,25.72
2022-12-19T06:59:20.015Z,25.71
2022-12-19T07:02:13.919Z,25.71
2022-12-19T07:04:45.743Z,25.72
2022-12-19T07:07:16.237Z,25.72
2022-12-19T07:09:46.834Z,25.69
2022-12-19T07:12:17.079Z,25.72
2022-12-19T07:14:52.957Z,25.70
2022-12-19T07:17:19.482Z,25.71
2022-12-19T07:19:50.181Z,25.71
2022-12-19T07:22:21.768Z,25.68
2022-12-19T07:24:52.687Z,25.66
2022-12-19T07:27:23.937Z,25.66
2022-12-19T07:29:54.519Z,25.65
2022-12-19T07:32:25.508Z,25.65
2022-12-19T07:34:59.315Z,25.67
2022-12-19T07:37:29.778Z,25.62
2022-12-19T07:40:00.196Z,25.64
2022-12-19T07:42:32.864Z,25.61
2022-12-19T07:45:03.613Z,25.62
2022-12-19T07:47:33.622Z,25.59
2022-12-19T07:50:04.331Z,25.61
2022-12-19T07:52:34.651Z,25.59
2022-12-19T07:55:04.849Z,25.60
2022-12-19T07:57:35.408Z,25.62
2022-12-19T08:00:06.321Z,25.48
2022-12-19T08:02:37.237Z,25.48
2022-12-19T08:05:08.018Z,25.71
2022-12-19T08:07:38.234Z,25.71
2022-12-19T13:57:30.570Z,26.41
2022-12-19T14:00:03.099Z,26.43
2022-12-19T14:02:43.770Z,26.44
2022-12-19T14:05:07.596Z,26.42
2022-12-19T14:07:42.255Z,26.40
2022-12-19T14:11:37.779Z,26.39
2022-12-19T14:13:55.653Z,26.36
2022-12-19T14:15:42.299Z,26.34
2022-12-19T14:18:45.065Z,26.32
2022-12-19T14:22:09.905Z,26.31
2022-12-19T14:23:42.608Z,26.28
2022-12-19T14:28:19.656Z,26.26
2022-12-19T14:28:42.325Z,26.23
2022-12-19T14:31:14.410Z,26.21
2022-12-19T14:34:11.177Z,26.20
2022-12-19T14:36:26.065Z,26.18
2022-12-19T14:39:22.761Z,26.18
2022-12-19T14:41:57.351Z,26.16
2022-12-19T14:52:34.429Z,26.15
2022-12-19T14:54:04.126Z,26.12
2022-12-19T14:54:14.413Z,26.10
2022-12-19T14:54:31.360Z,26.08
2022-12-19T14:56:16.019Z,26.08
2022-12-19T14:58:53.233Z,26.07
2022-12-19T15:01:08.048Z,26.04
2022-12-19T15:03:04.026Z,26.04
2022-12-19T15:05:34.716Z,25.20
2022-12-19T15:08:04.730Z,25.59
2022-12-19T15:11:08.037Z,25.85
2022-12-19T15:14:52.564Z,25.95
2022-12-19T15:16:02.958Z,25.96
2022-12-19T15:21:13.458Z,26.00
2022-12-19T15:23:43.397Z,26.02
2022-12-19T15:26:18.749Z,26.01
2022-12-19T15:28:55.616Z,26.00
2022-12-19T15:31:40.895Z,26.12
2022-12-19T15:34:34.908Z,26.12
2022-12-19T15:36:53.029Z,25.95
2022-12-19T15:39:24.357Z,25.94
2022-12-19T15:42:01.564Z,25.91
2022-12-19T15:44:43.166Z,25.92
2022-12-19T15:47:21.745Z,25.90
2022-12-19T15:49:52.245Z,25.90
2022-12-19T15:52:22.530Z,25.90
2022-12-19T15:54:52.516Z,25.90
2022-12-19T15:57:26.116Z,25.88
2022-12-19T15:59:57.382Z,25.89
2022-12-19T16:02:56.374Z,25.88
2022-12-19T16:05:04.259Z,25.88
2022-12-19T16:07:32.883Z,25.87
2022-12-19T16:10:03.589Z,25.84
2022-12-19T16:12:38.420Z,25.85
2022-12-19T16:15:10.984Z,25.85
2022-12-19T16:17:41.343Z,25.84
2022-12-19T16:20:19.946Z,25.80
2022-12-19T16:22:50.262Z,25.80
2022-12-19T16:25:21.004Z,25.79
2022-12-19T16:27:58.780Z,25.82
2022-12-19T16:30:32.006Z,25.81
2022-12-19T16:33:02.207Z,25.80
2022-12-19T16:36:03.000Z,25.81
2022-12-19T16:38:06.139Z,25.80
2022-12-19T16:40:36.342Z,25.78
2022-12-19T16:43:12.657Z,25.81
2022-12-19T16:45:44.352Z,25.81
2022-12-19T16:48:26.173Z,25.80
2022-12-19T16:50:56.374Z,25.79
2022-12-19T16:53:26.827Z,25.81
2022-12-19T16:55:57.646Z,25.81
2022-12-19T16:58:30.493Z,25.80
2022-12-19T17:01:00.896Z,25.82
2022-12-19T17:03:44.051Z,25.80
2022-12-19T17:06:20.835Z,25.82
2022-12-19T17:08:50.897Z,25.80
2022-12-19T17:11:25.428Z,25.81
2022-12-19T17:13:59.491Z,25.82
2022-12-19T17:16:29.699Z,25.81
2022-12-19T17:19:00.691Z,25.81
2022-12-19T17:23:56.914Z,25.81
2022-12-19T17:26:28.034Z,25.82
2022-12-19T17:29:00.204Z,25.83
2022-12-19T17:31:31.066Z,25.83
2022-12-19T17:34:01.009Z,25.82
2022-12-19T17:36:37.177Z,25.84
2022-12-19T17:39:04.196Z,25.85
2022-12-19T17:41:35.168Z,25.84
2022-12-19T17:44:05.292Z,25.86
2022-12-19T17:46:35.614Z,25.87
2022-12-19T17:49:05.978Z,25.88
2022-12-19T17:51:36.074Z,25.87
2022-12-19T17:54:09.185Z,25.86
2022-12-19T17:56:39.344Z,25.89
2022-12-19T17:59:09.454Z,25.90
2022-12-19T18:01:41.291Z,25.92
2022-12-19T18:04:23.405Z,25.93
2022-12-19T18:06:53.545Z,25.90
2022-12-19T18:09:25.634Z,25.78
2022-12-19T18:11:55.866Z,25.78
2022-12-19T18:14:26.649Z,25.95
2022-12-19T18:16:58.242Z,25.93
2022-12-19T18:19:30.527Z,25.94
2022-12-19T18:22:00.900Z,25.94
2022-12-19T18:24:34.436Z,25.94
2022-12-19T18:27:08.416Z,25.98
2022-12-19T18:29:38.612Z,25.97
2022-12-19T18:32:11.165Z,26.02
2022-12-19T18:34:41.731Z,26.01
2022-12-19T18:37:17.380Z,26.01
2022-12-19T18:39:47.858Z,26.04
2022-12-19T18:42:22.330Z,26.06
2022-12-19T18:44:55.247Z,26.02
2022-12-19T18:47:26.342Z,26.08
2022-12-19T18:49:56.831Z,26.09
2022-12-19T18:52:27.845Z,26.08
2022-12-19T18:54:57.929Z,26.08
2022-12-19T18:57:28.878Z,26.12
2022-12-19T18:59:59.444Z,26.13
2022-12-19T19:02:30.143Z,26.14
2022-12-19T19:05:00.587Z,26.15
2022-12-19T19:07:30.731Z,26.15
2022-12-19T19:09:59.579Z,26.15
2022-12-19T19:12:30.374Z,26.20
2022-12-19T19:15:02.229Z,26.19
2022-12-19T19:17:32.683Z,26.20
2022-12-19T19:20:03.576Z,26.21
2022-12-19T19:22:34.123Z,26.21
2022-12-19T19:25:04.449Z,26.18
2022-12-19T19:27:35.292Z,26.19
2022-12-19T19:30:10.910Z,26.24
2022-12-19T19:32:42.751Z,26.23
2022-12-19T19:35:13.262Z,26.25
2022-12-19T19:37:44.845Z,26.27
2022-12-19T19:40:15.461Z,26.26
2022-12-19T19:42:45.775Z,26.27
2022-12-19T19:45:15.667Z,26.27
2022-12-19T19:47:45.775Z,26.26
2022-12-19T19:50:16.057Z,26.31
2022-12-19T19:52:45.966Z,26.32
2022-12-19T19:55:18.915Z,26.32
2022-12-19T19:57:49.558Z,26.36
2022-12-19T20:00:21.302Z,26.30
2022-12-19T20:02:51.777Z,26.32
2022-12-19T20:05:22.200Z,26.35
2022-12-19T20:07:52.241Z,26.37
2022-12-19T20:10:22.692Z,26.37
2022-12-19T20:12:52.963Z,26.40
2022-12-19T20:15:23.295Z,26.39
2022-12-19T20:17:55.131Z,26.39
2022-12-19T20:20:26.602Z,26.42
2022-12-19T20:22:56.522Z,26.43
2022-12-19T20:25:27.989Z,26.40
2022-12-19T20:27:58.899Z,26.43
2022-12-19T20:30:30.061Z,26.43
2022-12-19T20:33:00.156Z,26.45
2022-12-19T20:35:30.569Z,26.43
2022-12-19T20:38:02.763Z,26.44
2022-12-19T20:40:32.885Z,26.44
2022-12-19T20:43:03.216Z,26.44
2022-12-19T20:45:33.300Z,26.46
2022-12-19T20:48:03.664Z,26.47
2022-12-19T20:50:38.056Z,26.46
2022-12-19T20:53:05.956Z,26.51
2022-12-19T20:55:36.282Z,26.52
2022-12-19T20:58:06.441Z,26.50
2022-12-19T21:00:36.477Z,26.51
2022-12-19T21:05:39.419Z,26.52
2022-12-19T21:08:09.833Z,26.55
2022-12-19T21:10:40.439Z,26.55
2022-12-19T21:13:11.108Z,26.58
2022-12-19T21:15:45.871Z,26.58
2022-12-19T21:18:16.185Z,26.61
2022-12-19T21:20:46.191Z,26.63
2022-12-19T21:23:16.676Z,26.63
2022-12-19T21:25:47.016Z,26.64
2022-12-19T21:28:17.102Z,26.65
2022-12-19T21:30:47.070Z,26.67
2022-12-19T21:33:17.869Z,26.68
2022-12-19T21:35:47.993Z,26.69
2022-12-19T21:38:20.865Z,26.69
2022-12-19T21:40:51.119Z,26.72
2022-12-19T21:43:21.070Z,26.70
2022-12-19T21:48:53.629Z,26.61
2022-12-19T21:51:26.052Z,26.74
2022-12-19T21:53:59.431Z,26.74
2022-12-19T21:56:33.303Z,26.76
2022-12-19T21:59:06.734Z,26.78
2022-12-19T22:01:42.455Z,26.79
2022-12-19T22:04:17.254Z,26.79
2022-12-19T22:06:47.567Z,26.80
2022-12-19T22:09:19.142Z,26.81
2022-12-19T22:11:50.187Z,26.84
2022-12-19T22:14:26.515Z,26.82
2022-12-19T22:16:58.576Z,26.85
2022-12-19T22:19:29.960Z,26.87
2022-12-19T22:22:05.013Z,26.86
2022-12-19T22:24:38.736Z,26.87
2022-12-19T22:27:09.507Z,26.88
2022-12-19T22:29:39.864Z,26.88
2022-12-19T22:32:10.925Z,26.88
2022-12-19T22:34:40.935Z,26.89
2022-12-19T22:37:11.631Z,26.88
2022-12-19T22:39:41.895Z,26.88
2022-12-19T22:42:13.016Z,26.89
2022-12-19T22:44:43.394Z,26.90
2022-12-19T22:47:28.930Z,26.89
2022-12-19T22:50:14.242Z,26.89
2022-12-19T22:52:58.890Z,26.90
2022-12-19T22:55:30.573Z,26.90
2022-12-19T22:58:01.376Z,26.89
2022-12-19T23:00:33.508Z,26.89
2022-12-19T23:03:05.316Z,26.89
2022-12-19T23:05:55.511Z,26.88
2022-12-19T23:08:27.534Z,26.90
2022-12-19T23:11:03.665Z,26.87
2022-12-19T23:13:32.100Z,26.85
2022-12-19T23:16:03.337Z,26.83
2022-12-19T23:18:37.057Z,26.74
2022-12-19T23:21:18.704Z,26.73
2022-12-19T23:23:49.465Z,26.71
2022-12-19T23:26:28.016Z,26.69
2022-12-19T23:29:07.498Z,26.86
2022-12-19T23:31:37.674Z,26.86
2022-12-19T23:34:08.090Z,26.72
2022-12-19T23:39:13.143Z,26.74
2022-12-19T23:41:43.554Z,26.76
2022-12-19T23:44:21.874Z,26.77
2022-12-19T23:46:55.498Z,26.78
2022-12-19T23:49:25.311Z,26.79
2022-12-19T23:51:57.943Z,26.80
2022-12-19T23:54:28.799Z,26.83
2022-12-19T23:57:00.956Z,26.83
2022-12-19T23:59:36.853Z,26.84
